sensor_id;sensor_type;location;lat;lon;timestamp;pressure;altitude;pressure_sealevel;temperature
62930;BMP280;49036;42.782;23.108;2022-12-10T00:01:27;-14319.00;;;8.31
62930;BMP280;49036;42.782;23.108;2022-12-10T00:03:53;-14323.81;;;8.45
62930;BMP280;49036;42.782;23.108;2022-12-10T00:06:22;-14322.63;;;8.41
62930;BMP280;49036;42.782;23.108;2022-12-10T00:08:48;-14322.28;;;8.40
62930;BMP280;49036;42.782;23.108;2022-12-10T00:11:15;-14320.88;;;8.36
62930;BMP280;49036;42.782;23.108;2022-12-10T00:13:41;-14322.44;;;8.41
62930;BMP280;49036;42.782;23.108;2022-12-10T00:16:09;-14327.13;;;8.55
62930;BMP280;49036;42.782;23.108;2022-12-10T00:18:35;-14331.59;;;8.68
62930;BMP280;49036;42.782;23.108;2022-12-10T00:21:09;-14333.84;;;8.74
62930;BMP280;49036;42.782;23.108;2022-12-10T00:23:36;-14338.34;;;8.88
62930;BMP280;49036;42.782;23.108;2022-12-10T00:26:06;-14340.44;;;8.94
62930;BMP280;49036;42.782;23.108;2022-12-10T00:28:32;-14338.00;;;8.87
62930;BMP280;49036;42.782;23.108;2022-12-10T00:31:06;-14335.94;;;8.80
62930;BMP280;49036;42.782;23.108;2022-12-10T00:33:32;-14339.03;;;8.90
62930;BMP280;49036;42.782;23.108;2022-12-10T00:36:08;-14343.03;;;9.01
62930;BMP280;49036;42.782;23.108;2022-12-10T00:38:34;-14342.84;;;9.01
62930;BMP280;49036;42.782;23.108;2022-12-10T00:41:00;-14348.03;;;9.16
62930;BMP280;49036;42.782;23.108;2022-12-10T00:43:26;-14351.16;;;9.25
62930;BMP280;49036;42.782;23.108;2022-12-10T00:45:52;-14349.75;;;9.21
62930;BMP280;49036;42.782;23.108;2022-12-10T00:48:17;-14355.97;;;9.39
62930;BMP280;49036;42.782;23.108;2022-12-10T00:50:43;-14359.78;;;9.51
62930;BMP280;49036;42.782;23.108;2022-12-10T00:53:08;-14370.50;;;9.82
62930;BMP280;49036;42.782;23.108;2022-12-10T00:55:33;-14375.19;;;9.96
62930;BMP280;49036;42.782;23.108;2022-12-10T00:57:59;-14375.19;;;9.96
62930;BMP280;49036;42.782;23.108;2022-12-10T01:00:24;-14376.91;;;10.01
62930;BMP280;49036;42.782;23.108;2022-12-10T01:02:50;-14384.19;;;10.22
62930;BMP280;49036;42.782;23.108;2022-12-10T01:05:15;-14384.53;;;10.23
62930;BMP280;49036;42.782;23.108;2022-12-10T01:07:41;-14385.91;;;10.27
62930;BMP280;49036;42.782;23.108;2022-12-10T01:10:07;-14387.13;;;10.31
62930;BMP280;49036;42.782;23.108;2022-12-10T01:12:32;-14384.34;;;10.23
62930;BMP280;49036;42.782;23.108;2022-12-10T01:14:58;-14385.56;;;10.26
62930;BMP280;49036;42.782;23.108;2022-12-10T01:17:23;-14386.06;;;10.28
62930;BMP280;49036;42.782;23.108;2022-12-10T01:19:48;-14386.59;;;10.29
62930;BMP280;49036;42.782;23.108;2022-12-10T01:22:14;-14386.94;;;10.30
62930;BMP280;49036;42.782;23.108;2022-12-10T01:24:39;-14386.94;;;10.30
62930;BMP280;49036;42.782;23.108;2022-12-10T01:27:05;-14386.94;;;10.30
62930;BMP280;49036;42.782;23.108;2022-12-10T01:29:30;-14384.53;;;10.23
62930;BMP280;49036;42.782;23.108;2022-12-10T01:31:56;-14382.97;;;10.19
62930;BMP280;49036;42.782;23.108;2022-12-10T01:34:22;-14380.72;;;10.12
62930;BMP280;49036;42.782;23.108;2022-12-10T01:36:51;-14383.81;;;10.21
62930;BMP280;49036;42.782;23.108;2022-12-10T01:39:18;-14383.66;;;10.21
62930;BMP280;49036;42.782;23.108;2022-12-10T01:41:58;-14379.84;;;10.10
62930;BMP280;49036;42.782;23.108;2022-12-10T01:46:50;-14377.09;;;10.01
62930;BMP280;49036;42.782;23.108;2022-12-10T01:49:19;-14378.28;;;10.05
62930;BMP280;49036;42.782;23.108;2022-12-10T01:51:49;-14378.28;;;10.05
62930;BMP280;49036;42.782;23.108;2022-12-10T01:54:29;-14375.53;;;9.97
62930;BMP280;49036;42.782;23.108;2022-12-10T01:57:04;-14376.75;;;10.00
62930;BMP280;49036;42.782;23.108;2022-12-10T01:59:30;-14377.09;;;10.01
62930;BMP280;49036;42.782;23.108;2022-12-10T02:09:32;-14374.66;;;9.94
62930;BMP280;49036;42.782;23.108;2022-12-10T02:17:29;-14374.16;;;9.93
62930;BMP280;49036;42.782;23.108;2022-12-10T02:22:29;-14370.34;;;9.82
62930;BMP280;49036;42.782;23.108;2022-12-10T02:24:57;-14368.25;;;9.75
62930;BMP280;49036;42.782;23.108;2022-12-10T02:27:29;-14369.81;;;9.80
62930;BMP280;49036;42.782;23.108;2022-12-10T02:29:58;-14369.31;;;9.79
62930;BMP280;49036;42.782;23.108;2022-12-10T02:32:30;-14369.63;;;9.80
62930;BMP280;49036;42.782;23.108;2022-12-10T02:34:59;-14366.38;;;9.70
62930;BMP280;49036;42.782;23.108;2022-12-10T02:37:33;-14366.38;;;9.70
62930;BMP280;49036;42.782;23.108;2022-12-10T02:40:03;-14368.78;;;9.77
62930;BMP280;49036;42.782;23.108;2022-12-10T02:42:30;-14369.13;;;9.78
62930;BMP280;49036;42.782;23.108;2022-12-10T02:44:58;-14367.91;;;9.74
62930;BMP280;49036;42.782;23.108;2022-12-10T02:47:25;-14368.97;;;9.77
62930;BMP280;49036;42.782;23.108;2022-12-10T02:49:51;-14370.84;;;9.83
62930;BMP280;49036;42.782;23.108;2022-12-10T02:52:19;-14369.47;;;9.79
62930;BMP280;49036;42.782;23.108;2022-12-10T02:54:47;-14369.47;;;9.79
62930;BMP280;49036;42.782;23.108;2022-12-10T03:05:42;-14368.97;;;9.77
62930;BMP280;49036;42.782;23.108;2022-12-10T03:08:14;-14366.88;;;9.71
62930;BMP280;49036;42.782;23.108;2022-12-10T03:10:55;-14366.38;;;9.70
62930;BMP280;49036;42.782;23.108;2022-12-10T03:13:27;-14367.91;;;9.74
62930;BMP280;49036;42.782;23.108;2022-12-10T03:15:54;-14368.97;;;9.77
62930;BMP280;49036;42.782;23.108;2022-12-10T03:18:23;-14370.34;;;9.82
62930;BMP280;49036;42.782;23.108;2022-12-10T03:20:52;-14369.81;;;9.80
62930;BMP280;49036;42.782;23.108;2022-12-10T03:23:19;-14370.16;;;9.81
62930;BMP280;49036;42.782;23.108;2022-12-10T03:25:46;-14369.81;;;9.80
62930;BMP280;49036;42.782;23.108;2022-12-10T03:28:13;-14366.53;;;9.70
62930;BMP280;49036;42.782;23.108;2022-12-10T03:30:41;-14365.31;;;9.67
62930;BMP280;49036;42.782;23.108;2022-12-10T03:33:08;-14367.41;;;9.73
62930;BMP280;49036;42.782;23.108;2022-12-10T03:35:34;-14367.56;;;9.73
62930;BMP280;49036;42.782;23.108;2022-12-10T03:38:01;-14367.75;;;9.74
62930;BMP280;49036;42.782;23.108;2022-12-10T03:40:26;-14370.69;;;9.83
62930;BMP280;49036;42.782;23.108;2022-12-10T03:42:52;-14369.81;;;9.80
62930;BMP280;49036;42.782;23.108;2022-12-10T03:45:17;-14371.03;;;9.84
62930;BMP280;49036;42.782;23.108;2022-12-10T03:47:43;-14377.44;;;10.02
62930;BMP280;49036;42.782;23.108;2022-12-10T03:50:09;-14375.19;;;9.96
62930;BMP280;49036;42.782;23.108;2022-12-10T03:52:34;-14373.44;;;9.91
62930;BMP280;49036;42.782;23.108;2022-12-10T03:55:00;-14373.28;;;9.90
62930;BMP280;49036;42.782;23.108;2022-12-10T03:57:25;-14372.75;;;9.89
62930;BMP280;49036;42.782;23.108;2022-12-10T03:59:51;-14374.66;;;9.94
62930;BMP280;49036;42.782;23.108;2022-12-10T04:02:16;-14373.09;;;9.90
62930;BMP280;49036;42.782;23.108;2022-12-10T04:04:41;-14373.97;;;9.92
62930;BMP280;49036;42.782;23.108;2022-12-10T04:07:07;-14372.94;;;9.89
62930;BMP280;49036;42.782;23.108;2022-12-10T04:09:32;-14374.31;;;9.93
62930;BMP280;49036;42.782;23.108;2022-12-10T04:11:59;-14375.34;;;9.96
62930;BMP280;49036;42.782;23.108;2022-12-10T04:14:25;-14377.44;;;10.02
62930;BMP280;49036;42.782;23.108;2022-12-10T04:17:09;-14376.91;;;10.01
62930;BMP280;49036;42.782;23.108;2022-12-10T04:19:35;-14378.13;;;10.04
62930;BMP280;49036;42.782;23.108;2022-12-10T04:22:00;-14378.47;;;10.05
62930;BMP280;49036;42.782;23.108;2022-12-10T04:24:45;-14377.94;;;10.04
62930;BMP280;49036;42.782;23.108;2022-12-10T04:27:31;-14379.00;;;10.07
62930;BMP280;49036;42.782;23.108;2022-12-10T04:29:58;-14376.38;;;9.99
62930;BMP280;49036;42.782;23.108;2022-12-10T04:32:26;-14377.59;;;10.03
62930;BMP280;49036;42.782;23.108;2022-12-10T04:34:52;-14376.22;;;9.99
62930;BMP280;49036;42.782;23.108;2022-12-10T04:37:18;-14375.34;;;9.96
62930;BMP280;49036;42.782;23.108;2022-12-10T04:39:44;-14377.09;;;10.01
62930;BMP280;49036;42.782;23.108;2022-12-10T04:42:10;-14375.19;;;9.96
62930;BMP280;49036;42.782;23.108;2022-12-10T04:44:36;-14375.88;;;9.98
62930;BMP280;49036;42.782;23.108;2022-12-10T04:47:03;-14373.28;;;9.90
62930;BMP280;49036;42.782;23.108;2022-12-10T04:49:29;-14371.19;;;9.84
62930;BMP280;49036;42.782;23.108;2022-12-10T04:51:54;-14371.19;;;9.84
62930;BMP280;49036;42.782;23.108;2022-12-10T04:54:20;-14372.06;;;9.87
62930;BMP280;49036;42.782;23.108;2022-12-10T04:56:46;-14373.09;;;9.90
62930;BMP280;49036;42.782;23.108;2022-12-10T04:59:12;-14371.72;;;9.86
62930;BMP280;49036;42.782;23.108;2022-12-10T05:01:38;-14368.25;;;9.75
62930;BMP280;49036;42.782;23.108;2022-12-10T05:04:06;-14371.03;;;9.84
62930;BMP280;49036;42.782;23.108;2022-12-10T05:06:32;-14370.16;;;9.81
62930;BMP280;49036;42.782;23.108;2022-12-10T05:08:58;-14372.59;;;9.88
62930;BMP280;49036;42.782;23.108;2022-12-10T05:11:27;-14371.03;;;9.84
62930;BMP280;49036;42.782;23.108;2022-12-10T05:13:54;-14371.72;;;9.86
62930;BMP280;49036;42.782;23.108;2022-12-10T05:16:21;-14368.97;;;9.77
62930;BMP280;49036;42.782;23.108;2022-12-10T05:18:48;-14370.69;;;9.83
62930;BMP280;49036;42.782;23.108;2022-12-10T05:21:16;-14370.16;;;9.81
62930;BMP280;49036;42.782;23.108;2022-12-10T05:23:44;-14369.31;;;9.79
62930;BMP280;49036;42.782;23.108;2022-12-10T05:26:11;-14366.38;;;9.70
62930;BMP280;49036;42.782;23.108;2022-12-10T05:28:40;-14364.63;;;9.65
62930;BMP280;49036;42.782;23.108;2022-12-10T05:31:11;-14364.97;;;9.66
62930;BMP280;49036;42.782;23.108;2022-12-10T05:33:37;-14364.97;;;9.66
62930;BMP280;49036;42.782;23.108;2022-12-10T05:36:03;-14364.97;;;9.66
62930;BMP280;49036;42.782;23.108;2022-12-10T05:38:30;-14364.97;;;9.66
62930;BMP280;49036;42.782;23.108;2022-12-10T05:41:07;-14364.28;;;9.64
62930;BMP280;49036;42.782;23.108;2022-12-10T05:43:34;-14363.06;;;9.60
62930;BMP280;49036;42.782;23.108;2022-12-10T05:46:00;-14365.31;;;9.67
62930;BMP280;49036;42.782;23.108;2022-12-10T05:48:26;-14365.16;;;9.66
62930;BMP280;49036;42.782;23.108;2022-12-10T05:50:52;-14366.38;;;9.70
62930;BMP280;49036;42.782;23.108;2022-12-10T05:53:17;-14367.91;;;9.74
62930;BMP280;49036;42.782;23.108;2022-12-10T05:55:43;-14370.16;;;9.81
62930;BMP280;49036;42.782;23.108;2022-12-10T05:58:09;-14371.03;;;9.84
62930;BMP280;49036;42.782;23.108;2022-12-10T06:00:35;-14372.59;;;9.88
62930;BMP280;49036;42.782;23.108;2022-12-10T06:03:00;-14371.19;;;9.84
62930;BMP280;49036;42.782;23.108;2022-12-10T06:05:25;-14371.91;;;9.86
62930;BMP280;49036;42.782;23.108;2022-12-10T06:07:51;-14373.09;;;9.90
62930;BMP280;49036;42.782;23.108;2022-12-10T06:10:17;-14372.75;;;9.89
62930;BMP280;49036;42.782;23.108;2022-12-10T06:12:42;-14370.34;;;9.82
62930;BMP280;49036;42.782;23.108;2022-12-10T06:15:08;-14368.63;;;9.76
62930;BMP280;49036;42.782;23.108;2022-12-10T06:17:33;-14368.78;;;9.77
62930;BMP280;49036;42.782;23.108;2022-12-10T06:19:59;-14368.97;;;9.77
62930;BMP280;49036;42.782;23.108;2022-12-10T06:22:24;-14368.78;;;9.77
62930;BMP280;49036;42.782;23.108;2022-12-10T06:24:50;-14368.25;;;9.75
62930;BMP280;49036;42.782;23.108;2022-12-10T06:27:15;-14368.97;;;9.77
62930;BMP280;49036;42.782;23.108;2022-12-10T06:29:40;-14369.81;;;9.80
62930;BMP280;49036;42.782;23.108;2022-12-10T06:32:06;-14368.97;;;9.77
62930;BMP280;49036;42.782;23.108;2022-12-10T06:34:32;-14368.25;;;9.75
62930;BMP280;49036;42.782;23.108;2022-12-10T06:36:57;-14370.69;;;9.83
62930;BMP280;49036;42.782;23.108;2022-12-10T06:39:23;-14370.84;;;9.83
62930;BMP280;49036;42.782;23.108;2022-12-10T06:41:48;-14373.28;;;9.90
62930;BMP280;49036;42.782;23.108;2022-12-10T06:44:13;-14373.78;;;9.92
62930;BMP280;49036;42.782;23.108;2022-12-10T06:46:39;-14374.66;;;9.94
62930;BMP280;49036;42.782;23.108;2022-12-10T06:49:06;-14379.16;;;10.07
62930;BMP280;49036;42.782;23.108;2022-12-10T06:51:32;-14381.41;;;10.14
62930;BMP280;49036;42.782;23.108;2022-12-10T06:53:57;-14382.63;;;10.18
62930;BMP280;49036;42.782;23.108;2022-12-10T06:56:23;-14384.53;;;10.23
62930;BMP280;49036;42.782;23.108;2022-12-10T06:58:48;-14385.56;;;10.26
62930;BMP280;49036;42.782;23.108;2022-12-10T07:03:40;-14391.09;;;10.43
62930;BMP280;49036;42.782;23.108;2022-12-10T07:06:06;-14391.25;;;10.43
62930;BMP280;49036;42.782;23.108;2022-12-10T07:08:31;-14394.91;;;10.54
62930;BMP280;49036;42.782;23.108;2022-12-10T07:10:57;-14398.88;;;10.65
62930;BMP280;49036;42.782;23.108;2022-12-10T07:13:23;-14402.69;;;10.77
62930;BMP280;49036;42.782;23.108;2022-12-10T07:15:49;-14404.06;;;10.81
62930;BMP280;49036;42.782;23.108;2022-12-10T07:18:15;-14405.97;;;10.86
62930;BMP280;49036;42.782;23.108;2022-12-10T07:20:40;-14407.00;;;10.89
62930;BMP280;49036;42.782;23.108;2022-12-10T07:23:05;-14408.91;;;10.95
62930;BMP280;49036;42.782;23.108;2022-12-10T07:25:32;-14408.91;;;10.95
62930;BMP280;49036;42.782;23.108;2022-12-10T07:27:58;-14408.72;;;10.94
62930;BMP280;49036;42.782;23.108;2022-12-10T07:30:23;-14411.50;;;11.02
62930;BMP280;49036;42.782;23.108;2022-12-10T07:32:49;-14411.84;;;11.03
62930;BMP280;49036;42.782;23.108;2022-12-10T07:35:14;-14412.38;;;11.05
62930;BMP280;49036;42.782;23.108;2022-12-10T07:37:41;-14412.88;;;11.07
62930;BMP280;49036;42.782;23.108;2022-12-10T07:40:06;-14413.75;;;11.09
62930;BMP280;49036;42.782;23.108;2022-12-10T07:42:32;-14413.75;;;11.09
62930;BMP280;49036;42.782;23.108;2022-12-10T07:44:58;-14415.66;;;11.15
62930;BMP280;49036;42.782;23.108;2022-12-10T07:47:23;-14421.00;;;11.30
62930;BMP280;49036;42.782;23.108;2022-12-10T07:49:48;-14422.75;;;11.36
62930;BMP280;49036;42.782;23.108;2022-12-10T07:52:14;-14425.84;;;11.45
62930;BMP280;49036;42.782;23.108;2022-12-10T07:54:39;-14427.75;;;11.50
62930;BMP280;49036;42.782;23.108;2022-12-10T07:57:05;-14431.41;;;11.61
62930;BMP280;49036;42.782;23.108;2022-12-10T07:59:30;-14434.84;;;11.71
62930;BMP280;49036;42.782;23.108;2022-12-10T08:01:56;-14435.91;;;11.74
62930;BMP280;49036;42.782;23.108;2022-12-10T08:04:22;-14438.31;;;11.81
62930;BMP280;49036;42.782;23.108;2022-12-10T08:06:48;-14441.78;;;11.91
62930;BMP280;49036;42.782;23.108;2022-12-10T08:09:13;-14442.47;;;11.93
62930;BMP280;49036;42.782;23.108;2022-12-10T08:11:39;-14444.38;;;11.99
62930;BMP280;49036;42.782;23.108;2022-12-10T08:14:04;-14449.91;;;12.15
62930;BMP280;49036;42.782;23.108;2022-12-10T08:16:29;-14449.91;;;12.15
62930;BMP280;49036;42.782;23.108;2022-12-10T08:18:58;-14449.38;;;12.14
62930;BMP280;49036;42.782;23.108;2022-12-10T08:21:29;-14450.09;;;12.16
62930;BMP280;49036;42.782;23.108;2022-12-10T08:23:55;-14452.50;;;12.23
62930;BMP280;49036;42.782;23.108;2022-12-10T08:26:24;-14453.19;;;12.25
62930;BMP280;49036;42.782;23.108;2022-12-10T08:28:50;-14456.47;;;12.35
62930;BMP280;49036;42.782;23.108;2022-12-10T08:31:18;-14462.19;;;12.51
62930;BMP280;49036;42.782;23.108;2022-12-10T08:33:44;-14463.94;;;12.56
62930;BMP280;49036;42.782;23.108;2022-12-10T08:36:12;-14463.94;;;12.56
62930;BMP280;49036;42.782;23.108;2022-12-10T08:38:39;-14469.28;;;12.72
62930;BMP280;49036;42.782;23.108;2022-12-10T08:41:13;-14476.56;;;12.93
62930;BMP280;49036;42.782;23.108;2022-12-10T08:43:39;-14482.28;;;13.10
62930;BMP280;49036;42.782;23.108;2022-12-10T08:46:06;-14491.97;;;13.39
62930;BMP280;49036;42.782;23.108;2022-12-10T08:48:32;-14503.91;;;13.74
62930;BMP280;49036;42.782;23.108;2022-12-10T08:50:58;-14514.81;;;14.06
62930;BMP280;49036;42.782;23.108;2022-12-10T08:53:24;-14525.03;;;14.36
62930;BMP280;49036;42.782;23.108;2022-12-10T08:55:53;-14533.31;;;14.60
62930;BMP280;49036;42.782;23.108;2022-12-10T08:58:20;-14534.88;;;14.65
62930;BMP280;49036;42.782;23.108;2022-12-10T09:00:46;-14530.91;;;14.53
62930;BMP280;49036;42.782;23.108;2022-12-10T09:03:12;-14531.59;;;14.55
62930;BMP280;49036;42.782;23.108;2022-12-10T09:05:38;-14529.16;;;14.48
62930;BMP280;49036;42.782;23.108;2022-12-10T09:08:03;-14534.38;;;14.63
62930;BMP280;49036;42.782;23.108;2022-12-10T09:10:29;-14539.56;;;14.78
62930;BMP280;49036;42.782;23.108;2022-12-10T09:12:54;-14549.78;;;15.08
62930;BMP280;49036;42.782;23.108;2022-12-10T09:15:20;-14546.66;;;14.99
62930;BMP280;49036;42.782;23.108;2022-12-10T09:17:45;-14547.88;;;15.03
62930;BMP280;49036;42.782;23.108;2022-12-10T09:20:11;-14541.13;;;14.83
62930;BMP280;49036;42.782;23.108;2022-12-10T09:22:37;-14554.28;;;15.21
62930;BMP280;49036;42.782;23.108;2022-12-10T09:25:05;-14544.06;;;14.91
62930;BMP280;49036;42.782;23.108;2022-12-10T09:27:31;-14558.78;;;15.35
62930;BMP280;49036;42.782;23.108;2022-12-10T09:29:56;-14560.50;;;15.40
62930;BMP280;49036;42.782;23.108;2022-12-10T09:32:22;-14551.34;;;15.13
62930;BMP280;49036;42.782;23.108;2022-12-10T09:34:51;-14546.66;;;14.99
62930;BMP280;49036;42.782;23.108;2022-12-10T09:37:17;-14544.56;;;14.93
62930;BMP280;49036;42.782;23.108;2022-12-10T09:39:42;-14545.63;;;14.96
62930;BMP280;49036;42.782;23.108;2022-12-10T09:42:34;-14556.53;;;15.28
62930;BMP280;49036;42.782;23.108;2022-12-10T09:45:30;-14565.69;;;15.55
62930;BMP280;49036;42.782;23.108;2022-12-10T09:50:48;-14570.72;;;15.70
62930;BMP280;49036;42.782;23.108;2022-12-10T09:53:17;-14574.34;;;15.80
62930;BMP280;49036;42.782;23.108;2022-12-10T09:55:46;-14569.69;;;15.67
62930;BMP280;49036;42.782;23.108;2022-12-10T09:58:24;-14576.94;;;15.88
62930;BMP280;49036;42.782;23.108;2022-12-10T10:00:56;-14576.09;;;15.85
62930;BMP280;49036;42.782;23.108;2022-12-10T10:03:22;-14574.34;;;15.80
62930;BMP280;49036;42.782;23.108;2022-12-10T10:05:52;-14571.06;;;15.71
62930;BMP280;49036;42.782;23.108;2022-12-10T10:11:45;-14572.28;;;15.74
62930;BMP280;49036;42.782;23.108;2022-12-10T10:14:16;-14556.53;;;15.28
62930;BMP280;49036;42.782;23.108;2022-12-10T10:16:51;-14571.59;;;15.72
62930;BMP280;49036;42.782;23.108;2022-12-10T10:19:22;-14565.88;;;15.55
62930;BMP280;49036;42.782;23.108;2022-12-10T10:21:50;-14558.59;;;15.34
62930;BMP280;49036;42.782;23.108;2022-12-10T10:24:19;-14566.38;;;15.57
62930;BMP280;49036;42.782;23.108;2022-12-10T10:26:45;-14562.75;;;15.46
62930;BMP280;49036;42.782;23.108;2022-12-10T10:30:07;-14556.88;;;15.29
62930;BMP280;49036;42.782;23.108;2022-12-10T10:35:01;-14561.38;;;15.42
62930;BMP280;49036;42.782;23.108;2022-12-10T10:37:31;-14566.56;;;15.57
62930;BMP280;49036;42.782;23.108;2022-12-10T10:40:05;-14563.28;;;15.48
62930;BMP280;49036;42.782;23.108;2022-12-10T10:42:42;-14557.91;;;15.32
62930;BMP280;49036;42.782;23.108;2022-12-10T10:45:42;-14564.16;;;15.50
62930;BMP280;49036;42.782;23.108;2022-12-10T10:53:30;-14569.50;;;15.66
62930;BMP280;49036;42.782;23.108;2022-12-10T10:56:00;-14575.03;;;15.82
62930;BMP280;49036;42.782;23.108;2022-12-10T10:58:29;-14583.88;;;16.08
62930;BMP280;49036;42.782;23.108;2022-12-10T11:01:07;-14577.13;;;15.88
62930;BMP280;49036;42.782;23.108;2022-12-10T11:03:35;-14564.84;;;15.52
62930;BMP280;49036;42.782;23.108;2022-12-10T11:06:05;-14551.50;;;15.13
62930;BMP280;49036;42.782;23.108;2022-12-10T11:08:31;-14558.25;;;15.33
62930;BMP280;49036;42.782;23.108;2022-12-10T11:11:06;-14552.19;;;15.15
62930;BMP280;49036;42.782;23.108;2022-12-10T11:13:34;-14560.16;;;15.39
62930;BMP280;49036;42.782;23.108;2022-12-10T11:16:02;-14553.25;;;15.18
62930;BMP280;49036;42.782;23.108;2022-12-10T11:18:38;-14546.13;;;14.98
62930;BMP280;49036;42.782;23.108;2022-12-10T11:23:44;-14556.88;;;15.29
62930;BMP280;49036;42.782;23.108;2022-12-10T11:30:01;-14549.44;;;15.07
62930;BMP280;49036;42.782;23.108;2022-12-10T11:37:38;-14559.47;;;15.37
62930;BMP280;49036;42.782;23.108;2022-12-10T11:46:07;-14540.59;;;14.81
62930;BMP280;49036;42.782;23.108;2022-12-10T11:54:11;-14538.34;;;14.75
62930;BMP280;49036;42.782;23.108;2022-12-10T12:04:29;-14545.44;;;14.95
62930;BMP280;49036;42.782;23.108;2022-12-10T12:15:31;-14544.75;;;14.93
62930;BMP280;49036;42.782;23.108;2022-12-10T12:21:08;-14534.88;;;14.65
62930;BMP280;49036;42.782;23.108;2022-12-10T12:24:00;-14528.13;;;14.45
62930;BMP280;49036;42.782;23.108;2022-12-10T12:29:12;-14519.47;;;14.19
62930;BMP280;49036;42.782;23.108;2022-12-10T12:31:41;-14516.19;;;14.10
62930;BMP280;49036;42.782;23.108;2022-12-10T12:34:37;-14509.63;;;13.90
62930;BMP280;49036;42.782;23.108;2022-12-10T12:37:11;-14507.69;;;13.85
62930;BMP280;49036;42.782;23.108;2022-12-10T12:39:49;-14507.38;;;13.84
62930;BMP280;49036;42.782;23.108;2022-12-10T12:42:27;-14505.28;;;13.78
62930;BMP280;49036;42.782;23.108;2022-12-10T12:45:10;-14501.13;;;13.66
62930;BMP280;49036;42.782;23.108;2022-12-10T12:47:41;-14499.91;;;13.62
62930;BMP280;49036;42.782;23.108;2022-12-10T12:52:59;-14492.13;;;13.39
62930;BMP280;49036;42.782;23.108;2022-12-10T13:00:58;-14487.47;;;13.25
62930;BMP280;49036;42.782;23.108;2022-12-10T13:03:33;-14486.06;;;13.21
62930;BMP280;49036;42.782;23.108;2022-12-10T13:09:16;-14483.81;;;13.15
62930;BMP280;49036;42.782;23.108;2022-12-10T13:12:17;-14484.19;;;13.16
62930;BMP280;49036;42.782;23.108;2022-12-10T13:15:01;-14481.94;;;13.09
62930;BMP280;49036;42.782;23.108;2022-12-10T13:17:33;-14481.56;;;13.08
62930;BMP280;49036;42.782;23.108;2022-12-10T13:20:27;-14478.47;;;12.99
62930;BMP280;49036;42.782;23.108;2022-12-10T13:23:02;-14479.50;;;13.02
62930;BMP280;49036;42.782;23.108;2022-12-10T13:26:00;-14479.16;;;13.01
62930;BMP280;49036;42.782;23.108;2022-12-10T13:31:21;-14480.53;;;13.05
62930;BMP280;49036;42.782;23.108;2022-12-10T13:47:50;-14480.72;;;13.06
62930;BMP280;49036;42.782;23.108;2022-12-10T13:55:59;-14476.38;;;12.93
62930;BMP280;49036;42.782;23.108;2022-12-10T14:01:16;-14474.47;;;12.87
62930;BMP280;49036;42.782;23.108;2022-12-10T14:06:22;-14472.94;;;12.83
62930;BMP280;49036;42.782;23.108;2022-12-10T14:11:26;-14469.63;;;12.73
62930;BMP280;49036;42.782;23.108;2022-12-10T14:13:55;-14469.47;;;12.73
62930;BMP280;49036;42.782;23.108;2022-12-10T14:16:23;-14468.44;;;12.70
62930;BMP280;49036;42.782;23.108;2022-12-10T14:18:53;-14466.00;;;12.62
62930;BMP280;49036;42.782;23.108;2022-12-10T14:21:20;-14464.09;;;12.57
62930;BMP280;49036;42.782;23.108;2022-12-10T14:23:47;-14463.94;;;12.56
62930;BMP280;49036;42.782;23.108;2022-12-10T14:26:19;-14462.03;;;12.51
62930;BMP280;49036;42.782;23.108;2022-12-10T14:28:47;-14459.78;;;12.44
62930;BMP280;49036;42.782;23.108;2022-12-10T14:31:17;-14456.31;;;12.34
62930;BMP280;49036;42.782;23.108;2022-12-10T14:33:44;-14455.78;;;12.32
62930;BMP280;49036;42.782;23.108;2022-12-10T14:36:32;-14456.84;;;12.36
62930;BMP280;49036;42.782;23.108;2022-12-10T14:38:59;-14458.72;;;12.41
62930;BMP280;49036;42.782;23.108;2022-12-10T14:41:28;-14457.69;;;12.38
62930;BMP280;49036;42.782;23.108;2022-12-10T14:43:54;-14452.50;;;12.23
62930;BMP280;49036;42.782;23.108;2022-12-10T14:46:28;-14449.38;;;12.14
62930;BMP280;49036;42.782;23.108;2022-12-10T14:48:55;-14447.31;;;12.08
62930;BMP280;49036;42.782;23.108;2022-12-10T14:51:25;-14444.53;;;11.99
62930;BMP280;49036;42.782;23.108;2022-12-10T14:53:52;-14443.84;;;11.97
62930;BMP280;49036;42.782;23.108;2022-12-10T14:56:38;-14443.16;;;11.95
62930;BMP280;49036;42.782;23.108;2022-12-10T14:59:14;-14443.00;;;11.95
62930;BMP280;49036;42.782;23.108;2022-12-10T15:01:48;-14440.56;;;11.88
62930;BMP280;49036;42.782;23.108;2022-12-10T15:04:19;-14439.19;;;11.84
62930;BMP280;49036;42.782;23.108;2022-12-10T15:06:45;-14436.59;;;11.76
62930;BMP280;49036;42.782;23.108;2022-12-10T15:09:18;-14432.94;;;11.65
62930;BMP280;49036;42.782;23.108;2022-12-10T15:11:44;-14434.84;;;11.71
62930;BMP280;49036;42.782;23.108;2022-12-10T15:14:15;-14432.78;;;11.65
62930;BMP280;49036;42.782;23.108;2022-12-10T15:16:43;-14431.03;;;11.60
62930;BMP280;49036;42.782;23.108;2022-12-10T15:21:40;-14429.16;;;11.54
62930;BMP280;49036;42.782;23.108;2022-12-10T15:24:27;-14427.94;;;11.51
62930;BMP280;49036;42.782;23.108;2022-12-10T15:26:53;-14427.25;;;11.49
62930;BMP280;49036;42.782;23.108;2022-12-10T15:31:48;-14425.50;;;11.44
62930;BMP280;49036;42.782;23.108;2022-12-10T15:34:14;-14422.41;;;11.34
62930;BMP280;49036;42.782;23.108;2022-12-10T15:36:42;-14419.13;;;11.25
62930;BMP280;49036;42.782;23.108;2022-12-10T15:41:55;-14416.00;;;11.16
62930;BMP280;49036;42.782;23.108;2022-12-10T15:44:32;-14414.63;;;11.12
62930;BMP280;49036;42.782;23.108;2022-12-10T15:47:25;-14414.09;;;11.10
62930;BMP280;49036;42.782;23.108;2022-12-10T15:49:53;-14412.72;;;11.06
62930;BMP280;49036;42.782;23.108;2022-12-10T15:52:27;-14413.06;;;11.07
62930;BMP280;49036;42.782;23.108;2022-12-10T15:54:54;-14412.19;;;11.05
62930;BMP280;49036;42.782;23.108;2022-12-10T15:59:50;-14410.63;;;11.00
62930;BMP280;49036;42.782;23.108;2022-12-10T16:02:37;-14410.47;;;10.99
62930;BMP280;49036;42.782;23.108;2022-12-10T16:05:13;-14407.53;;;10.91
62930;BMP280;49036;42.782;23.108;2022-12-10T16:07:40;-14406.13;;;10.87
62930;BMP280;49036;42.782;23.108;2022-12-10T16:10:07;-14405.97;;;10.86
62930;BMP280;49036;42.782;23.108;2022-12-10T16:12:35;-14405.63;;;10.85
62930;BMP280;49036;42.782;23.108;2022-12-10T16:15:01;-14405.63;;;10.85
62930;BMP280;49036;42.782;23.108;2022-12-10T16:17:28;-14405.81;;;10.86
62930;BMP280;49036;42.782;23.108;2022-12-10T16:20:19;-14403.72;;;10.80